createdAt,value
2023-03-27T00:01:11.967Z,98007.44
2023-03-27T00:03:40.176Z,98009.31
2023-03-27T00:06:18.239Z,98016.56
2023-03-27T00:08:46.614Z,98026.44
2023-03-27T00:11:14.780Z,98019.88
2023-03-27T00:13:48.858Z,98020.16
2023-03-27T00:16:17.839Z,98023.97
2023-03-27T00:18:45.958Z,98031.81
2023-03-27T00:21:13.103Z,98028.19
2023-03-27T00:23:40.580Z,98040.44
2023-03-27T00:26:07.720Z,98045.97
2023-03-27T00:28:35.639Z,98042.84
2023-03-27T00:31:02.856Z,98055.22
2023-03-27T00:33:29.600Z,98061.41
2023-03-27T00:35:56.499Z,98066.66
2023-03-27T00:38:24.371Z,98073.03
2023-03-27T00:40:54.704Z,98078.50
2023-03-27T00:43:28.344Z,98080.59
2023-03-27T00:46:01.462Z,98074.72
2023-03-27T00:48:31.036Z,98083.63
2023-03-27T00:50:58.898Z,98088.66
2023-03-27T00:53:28.640Z,98100.47
2023-03-27T00:56:02.480Z,98102.16
2023-03-27T00:58:39.629Z,98106.53
2023-03-27T01:01:09.814Z,98109.25
2023-03-27T01:03:36.987Z,98115.34
2023-03-27T01:06:04.161Z,98115.75
2023-03-27T01:08:33.864Z,98127.16
2023-03-27T01:11:12.543Z,98128.31
2023-03-27T01:13:54.435Z,98124.22
2023-03-27T01:16:38.451Z,98139.41
2023-03-27T01:19:39.095Z,98130.69
2023-03-27T01:22:49.087Z,98138.00
2023-03-27T01:25:18.888Z,98144.06
2023-03-27T01:27:54.588Z,98147.53
2023-03-27T01:30:31.599Z,98148.84
2023-03-27T01:33:25.889Z,98148.00
2023-03-27T01:36:18.929Z,98138.78
2023-03-27T01:39:13.475Z,98144.34
2023-03-27T01:41:46.452Z,98147.69
2023-03-27T01:44:24.119Z,98157.72
2023-03-27T01:46:57.181Z,98173.41
2023-03-27T01:49:29.564Z,98165.22
2023-03-27T01:52:00.551Z,98165.59
2023-03-27T01:54:34.837Z,98176.16
2023-03-27T01:57:16.043Z,98179.81
2023-03-27T01:59:46.142Z,98182.69
2023-03-27T02:02:31.021Z,98190.66
2023-03-27T02:05:03.669Z,98201.97
2023-03-27T02:07:37.144Z,98198.97
2023-03-27T02:10:08.324Z,98215.59
2023-03-27T02:12:49.900Z,98216.44
2023-03-27T02:15:23.659Z,98220.00
2023-03-27T02:18:19.106Z,98219.16
2023-03-27T02:20:45.972Z,98228.88
2023-03-27T02:23:12.824Z,98236.72
2023-03-27T02:25:46.633Z,98232.41
2023-03-27T02:28:31.639Z,98244.75
2023-03-27T02:31:34.873Z,98254.19
2023-03-27T02:34:42.731Z,98260.25
2023-03-27T02:37:32.311Z,98263.97
2023-03-27T02:40:05.371Z,98275.28
2023-03-27T02:43:00.766Z,98288.63
2023-03-27T02:45:48.784Z,98286.78
2023-03-27T02:48:34.250Z,98297.22
2023-03-27T02:51:22.773Z,98310.31
2023-03-27T02:53:55.840Z,98315.78
2023-03-27T02:56:26.286Z,98314.94
2023-03-27T02:59:35.540Z,98330.81
2023-03-27T03:02:03.842Z,98328.38
2023-03-27T03:04:42.033Z,98344.25
2023-03-27T03:07:14.236Z,98341.66
2023-03-27T03:09:42.564Z,98350.25
2023-03-27T03:12:09.627Z,98357.31
2023-03-27T03:14:44.300Z,98368.78
2023-03-27T03:17:12.206Z,98370.47
2023-03-27T03:19:38.933Z,98373.16
2023-03-27T03:22:06.311Z,98378.41
2023-03-27T03:24:35.543Z,98389.63
2023-03-27T03:27:05.625Z,98401.28
2023-03-27T03:29:37.011Z,98398.66
2023-03-27T03:32:06.375Z,98399.31
2023-03-27T03:34:35.712Z,98405.75
2023-03-27T03:37:02.464Z,98415.53
2023-03-27T03:39:29.228Z,98414.78
2023-03-27T03:41:56.084Z,98426.84
2023-03-27T03:44:22.771Z,98428.69
2023-03-27T03:46:49.395Z,98443.25
2023-03-27T03:49:16.135Z,98456.84
2023-03-27T03:51:42.777Z,98451.44
2023-03-27T03:54:09.438Z,98465.53
2023-03-27T03:56:37.320Z,98466.28
2023-03-27T03:59:04.007Z,98467.47
2023-03-27T04:01:30.661Z,98483.25
2023-03-27T04:03:57.336Z,98489.75
2023-03-27T04:06:25.748Z,98493.34
2023-03-27T04:08:53.231Z,98500.69
2023-03-27T04:11:20.731Z,98500.75
2023-03-27T04:13:47.388Z,98506.94
2023-03-27T04:16:14.458Z,98514.00
2023-03-27T04:18:41.593Z,98521.47
2023-03-27T04:21:16.082Z,98529.50
2023-03-27T04:23:45.216Z,98529.75
2023-03-27T04:26:12.603Z,98526.63
2023-03-27T04:28:40.134Z,98532.31
2023-03-27T04:31:08.440Z,98540.47
2023-03-27T04:33:39.300Z,98545.69
2023-03-27T04:36:07.939Z,98549.22
2023-03-27T04:38:37.148Z,98555.53
2023-03-27T04:41:05.276Z,98565.59
2023-03-27T04:43:32.234Z,98576.13
2023-03-27T04:45:58.879Z,98583.38
2023-03-27T04:48:26.919Z,98580.75
2023-03-27T04:50:53.608Z,98592.84
2023-03-27T04:53:23.526Z,98589.66
2023-03-27T04:55:53.218Z,98606.38
2023-03-27T04:58:19.866Z,98607.44
2023-03-27T05:00:50.549Z,98612.53
2023-03-27T05:03:20.759Z,98614.53
2023-03-27T05:05:49.712Z,98615.50
2023-03-27T05:08:17.041Z,98625.25
2023-03-27T05:10:44.427Z,98630.78
2023-03-27T05:13:11.702Z,98630.78
2023-03-27T05:15:39.172Z,98623.09
2023-03-27T05:18:07.319Z,98630.00
2023-03-27T05:20:35.432Z,98637.91
2023-03-27T05:23:02.538Z,98646.81
2023-03-27T05:25:31.033Z,98654.06
2023-03-27T05:27:58.072Z,98658.22
2023-03-27T05:30:26.899Z,98664.50
2023-03-27T05:32:53.941Z,98673.25
2023-03-27T05:35:23.852Z,98678.47
2023-03-27T05:37:53.642Z,98680.44
2023-03-27T05:40:22.785Z,98683.06
2023-03-27T05:42:51.294Z,98695.25
2023-03-27T05:45:18.805Z,98691.84
2023-03-27T05:47:51.982Z,98701.44
2023-03-27T05:50:20.774Z,98699.78
2023-03-27T05:52:47.883Z,98703.13
2023-03-27T05:55:17.251Z,98708.34
2023-03-27T05:57:43.760Z,98711.88
2023-03-27T06:00:13.982Z,98719.06
2023-03-27T06:02:43.383Z,98709.41
2023-03-27T06:05:15.397Z,98719.69
2023-03-27T06:07:43.588Z,98714.47
2023-03-27T06:10:14.137Z,98716.16
2023-03-27T06:12:41.954Z,98723.31
2023-03-27T06:15:09.699Z,98720.47
2023-03-27T06:17:38.634Z,98720.41
2023-03-27T06:20:12.394Z,98728.91
2023-03-27T06:22:45.743Z,98727.09
2023-03-27T06:25:13.068Z,98746.13
2023-03-27T06:27:42.143Z,98742.47
2023-03-27T06:30:11.175Z,98751.91
2023-03-27T06:32:43.687Z,98759.34
2023-03-27T06:35:10.281Z,98765.22
2023-03-27T06:37:37.073Z,98769.38
2023-03-27T06:40:09.433Z,98771.06
2023-03-27T06:42:39.437Z,98772.47
2023-03-27T06:45:07.290Z,98774.56
2023-03-27T06:47:44.390Z,98788.00
2023-03-27T06:50:19.826Z,98779.25
2023-03-27T06:52:48.350Z,98774.13
2023-03-27T06:55:17.005Z,98778.19
2023-03-27T06:57:49.373Z,98787.63
2023-03-27T07:00:19.080Z,98788.16
2023-03-27T07:02:53.771Z,98798.31
2023-03-27T07:05:21.183Z,98800.69
2023-03-27T07:07:49.439Z,98806.47
2023-03-27T07:10:16.347Z,98805.25
2023-03-27T07:12:51.020Z,98810.78
2023-03-27T07:15:19.294Z,98806.50
2023-03-27T07:17:53.730Z,98807.06
2023-03-27T07:20:20.514Z,98808.66
2023-03-27T07:22:47.253Z,98812.25
2023-03-27T07:25:13.916Z,98813.81
2023-03-27T07:27:40.757Z,98827.50
2023-03-27T07:30:12.169Z,98821.75
2023-03-27T07:32:41.837Z,98825.31
2023-03-27T07:35:29.831Z,98835.34
2023-03-27T07:37:56.574Z,98832.47
2023-03-27T07:40:36.858Z,98837.94
2023-03-27T07:43:07.349Z,98830.16
2023-03-27T07:45:35.266Z,98850.47
2023-03-27T07:48:17.189Z,98844.25
2023-03-27T07:50:45.235Z,98846.53
2023-03-27T07:53:33.975Z,98847.69
2023-03-27T07:56:01.270Z,98844.16
2023-03-27T07:58:28.041Z,98846.06
2023-03-27T08:01:02.225Z,98839.63
2023-03-27T08:03:30.856Z,98844.38
2023-03-27T08:05:59.893Z,98853.47
2023-03-27T08:08:27.177Z,98846.66
2023-03-27T08:10:58.082Z,98860.03
2023-03-27T08:13:25.726Z,98865.03
2023-03-27T08:16:01.363Z,98861.19
2023-03-27T08:18:28.027Z,98870.47
2023-03-27T08:20:58.513Z,98876.47
2023-03-27T08:23:27.358Z,98866.16
2023-03-27T08:25:55.063Z,98872.63
2023-03-27T08:28:22.090Z,98876.88
2023-03-27T08:30:48.734Z,98884.78
2023-03-27T08:33:19.525Z,98894.41
2023-03-27T08:35:50.253Z,98888.75
2023-03-27T08:38:26.126Z,98894.19
2023-03-27T08:40:58.932Z,98899.47
2023-03-27T08:43:29.951Z,98897.44
2023-03-27T08:46:03.699Z,98896.53
2023-03-27T08:48:55.050Z,98903.47
2023-03-27T08:51:56.957Z,98909.28
2023-03-27T08:54:29.881Z,98906.59
2023-03-27T08:56:56.837Z,98908.59
2023-03-27T08:59:27.682Z,98908.16
2023-03-27T09:02:09.372Z,98910.59
2023-03-27T09:04:42.224Z,98918.47
2023-03-27T09:07:40.596Z,98920.56
2023-03-27T09:10:17.513Z,98923.13
2023-03-27T09:13:08.355Z,98934.66
2023-03-27T09:15:43.615Z,98928.88
2023-03-27T09:18:16.403Z,98929.72
2023-03-27T09:20:47.607Z,98932.41
2023-03-27T09:23:21.233Z,98932.06
2023-03-27T09:25:53.545Z,98927.09
2023-03-27T09:29:00.190Z,98938.81
2023-03-27T09:31:31.885Z,98935.25
2023-03-27T09:34:03.010Z,98942.06
2023-03-27T09:36:29.989Z,98943.69
2023-03-27T09:39:05.852Z,98941.72
2023-03-27T09:41:55.374Z,98950.50
2023-03-27T09:44:28.997Z,98937.81
2023-03-27T09:47:01.007Z,98936.47
2023-03-27T09:49:27.884Z,98938.03
2023-03-27T09:51:56.875Z,98931.16
2023-03-27T09:54:28.899Z,98938.50
2023-03-27T09:57:11.046Z,98941.91
2023-03-27T09:59:51.515Z,98937.41
2023-03-27T10:02:29.522Z,98938.91
2023-03-27T10:05:15.949Z,98941.28
2023-03-27T10:07:43.459Z,98939.31
2023-03-27T10:10:15.940Z,98955.91
2023-03-27T10:12:43.731Z,98960.41
2023-03-27T10:15:37.063Z,98961.06
2023-03-27T10:18:08.270Z,98964.78
2023-03-27T10:20:35.080Z,98963.16
2023-03-27T10:23:08.109Z,98960.50
2023-03-27T10:25:39.056Z,98967.53
2023-03-27T10:28:15.489Z,98970.78
2023-03-27T10:30:42.394Z,98971.56
2023-03-27T10:33:09.313Z,98968.44
2023-03-27T10:35:39.600Z,98961.09
2023-03-27T10:38:19.318Z,98975.34
2023-03-27T10:40:50.647Z,98967.97
2023-03-27T10:43:27.078Z,98976.84
2023-03-27T10:45:58.150Z,98976.13
2023-03-27T10:48:39.723Z,98974.59
2023-03-27T10:51:20.426Z,98983.63
2023-03-27T10:53:55.049Z,98972.59
2023-03-27T10:56:33.597Z,98977.22
2023-03-27T10:59:06.137Z,98976.59
2023-03-27T11:01:43.774Z,98993.38
2023-03-27T11:04:27.054Z,98992.25
2023-03-27T11:06:58.462Z,98993.38
2023-03-27T11:09:36.436Z,98987.53
2023-03-27T11:12:09.369Z,98988.03
2023-03-27T11:14:59.268Z,98984.34
2023-03-27T11:17:39.629Z,98983.41
2023-03-27T11:20:18.128Z,98979.09
2023-03-27T11:22:50.227Z,98985.44
2023-03-27T11:25:25.105Z,98980.25
2023-03-27T11:28:19.604Z,98982.41
2023-03-27T11:30:59.334Z,98997.88
2023-03-27T11:34:02.023Z,98991.94
2023-03-27T11:36:40.437Z,98989.28
2023-03-27T11:39:25.815Z,98994.44
2023-03-27T11:41:57.284Z,98993.31
2023-03-27T11:44:25.827Z,98991.03
2023-03-27T11:47:19.692Z,98981.78
2023-03-27T11:49:52.015Z,98984.56
2023-03-27T11:52:39.844Z,98988.97
2023-03-27T11:56:10.361Z,98980.06
2023-03-27T11:59:04.492Z,98982.03
2023-03-27T12:01:49.432Z,98985.91
2023-03-27T12:04:43.517Z,98981.47
2023-03-27T12:07:13.304Z,98995.38
2023-03-27T12:09:48.779Z,99017.22
2023-03-27T12:12:48.228Z,99036.56
2023-03-27T12:15:36.894Z,99043.84
2023-03-27T12:18:03.976Z,99043.47
2023-03-27T12:20:54.076Z,99035.75
2023-03-27T12:23:37.790Z,99038.00
2023-03-27T12:26:39.373Z,99041.34
2023-03-27T12:29:23.562Z,99036.63
2023-03-27T12:32:25.015Z,99045.56
2023-03-27T12:35:03.608Z,99046.78
2023-03-27T12:37:49.423Z,99044.81
2023-03-27T12:40:25.110Z,99027.16
2023-03-27T12:42:54.624Z,99019.78
2023-03-27T12:45:23.887Z,99018.22
2023-03-27T12:48:10.151Z,99003.59
2023-03-27T12:50:55.614Z,99013.09
2023-03-27T12:53:25.561Z,99006.78
2023-03-27T12:56:13.154Z,99005.09
2023-03-27T12:58:41.001Z,98999.03
2023-03-27T13:01:11.100Z,99005.91
2023-03-27T13:04:16.525Z,99002.22
2023-03-27T13:06:58.312Z,99003.03
2023-03-27T13:09:33.466Z,99014.13
2023-03-27T13:12:24.781Z,99016.91
2023-03-27T13:14:57.421Z,99000.38
2023-03-27T13:17:30.154Z,98996.53
2023-03-27T13:20:30.517Z,99001.69
2023-03-27T13:23:06.083Z,99002.34
2023-03-27T13:26:00.123Z,98990.22
2023-03-27T13:28:34.671Z,98992.41
2023-03-27T13:31:04.466Z,98998.31
2023-03-27T13:33:31.053Z,98987.94
2023-03-27T13:35:57.832Z,98989.25
2023-03-27T13:38:52.770Z,98985.94
2023-03-27T13:41:51.890Z,99006.22
2023-03-27T13:44:24.573Z,99003.88
2023-03-27T13:47:18.238Z,99003.78
2023-03-27T13:50:23.354Z,98993.84
2023-03-27T13:53:08.351Z,98989.53
2023-03-27T13:55:56.868Z,98983.13
2023-03-27T13:59:07.910Z,98987.94
2023-03-27T14:01:50.909Z,98999.13
2023-03-27T14:04:51.852Z,99004.13
2023-03-27T14:07:58.252Z,98981.44
2023-03-27T14:10:37.049Z,98981.97
2023-03-27T14:13:03.896Z,98987.81
2023-03-27T14:15:43.093Z,98989.78
2023-03-27T14:18:31.568Z,98999.41
2023-03-27T14:21:06.280Z,99016.22
2023-03-27T14:23:41.933Z,99024.25
2023-03-27T14:26:18.179Z,99023.97
2023-03-27T14:28:51.765Z,99032.81
2023-03-27T14:31:20.500Z,99033.78
2023-03-27T14:36:22.595Z,99073.16
2023-03-27T14:38:49.213Z,99099.66
2023-03-27T14:41:21.775Z,99109.47
2023-03-27T14:43:49.261Z,99127.25
2023-03-27T14:46:17.697Z,99123.22
2023-03-27T14:48:46.595Z,99127.66
2023-03-27T14:51:20.090Z,99124.75
2023-03-27T14:53:50.959Z,99124.25
2023-03-27T14:56:26.617Z,99120.84
2023-03-27T14:58:57.524Z,99120.88
2023-03-27T15:01:24.789Z,99115.53
2023-03-27T15:03:53.026Z,99121.81
2023-03-27T15:06:25.870Z,99116.72
2023-03-27T15:09:00.023Z,99116.72
2023-03-27T15:11:40.255Z,99118.25
2023-03-27T15:14:16.709Z,99114.03
2023-03-27T15:16:55.312Z,99119.00
2023-03-27T15:19:29.891Z,99117.41
2023-03-27T15:22:07.872Z,99111.53
2023-03-27T15:24:49.391Z,99119.63
2023-03-27T15:27:22.103Z,99115.84
2023-03-27T15:29:57.800Z,99124.41
2023-03-27T15:32:42.145Z,99116.81
2023-03-27T15:35:18.148Z,99111.28
2023-03-27T15:37:45.362Z,99108.72
2023-03-27T15:40:14.601Z,99107.66
2023-03-27T15:42:48.076Z,99096.41
2023-03-27T15:45:21.418Z,99100.06
2023-03-27T15:48:06.653Z,99150.06
2023-03-27T15:50:34.180Z,99162.38
2023-03-27T15:53:02.351Z,99161.44
2023-03-27T15:55:44.349Z,99175.38
2023-03-27T15:58:21.375Z,99176.72
2023-03-27T16:00:50.945Z,99181.25
2023-03-27T16:03:26.116Z,99182.03
2023-03-27T16:05:56.469Z,99175.38
2023-03-27T16:08:28.301Z,99183.78
2023-03-27T16:10:55.941Z,99186.19
2023-03-27T16:13:28.927Z,99179.66
2023-03-27T16:16:19.915Z,99181.09
2023-03-27T16:18:47.687Z,99184.91
2023-03-27T16:21:14.614Z,99187.47
2023-03-27T16:23:41.950Z,99191.50
2023-03-27T16:26:14.779Z,99199.91
2023-03-27T16:28:41.853Z,99192.06
2023-03-27T16:31:13.974Z,99203.75
2023-03-27T16:33:43.018Z,99219.47
2023-03-27T16:36:24.383Z,99216.00
2023-03-27T16:38:51.374Z,99223.50
2023-03-27T16:41:18.284Z,99220.56
2023-03-27T16:43:45.541Z,99225.75
2023-03-27T16:46:22.969Z,99218.47
2023-03-27T16:48:51.885Z,99232.22
2023-03-27T16:51:20.758Z,99230.50
2023-03-27T16:53:47.495Z,99243.44
2023-03-27T16:56:14.306Z,99237.75
2023-03-27T16:58:41.162Z,99238.38
2023-03-27T17:01:09.032Z,99245.44
2023-03-27T17:03:38.714Z,99253.31
2023-03-27T17:06:11.455Z,99257.03
2023-03-27T17:08:38.483Z,99253.16
2023-03-27T17:11:10.745Z,99258.47
2023-03-27T17:13:39.674Z,99270.72
2023-03-27T17:16:07.757Z,99267.63
2023-03-27T17:18:34.618Z,99275.72
2023-03-27T17:21:01.339Z,99284.06
2023-03-27T17:23:28.181Z,99279.97
2023-03-27T17:25:55.028Z,99287.78
2023-03-27T17:28:21.993Z,99288.97
2023-03-27T17:30:57.014Z,99293.75
2023-03-27T17:33:28.605Z,99298.63
2023-03-27T17:35:56.786Z,99306.84
2023-03-27T17:38:24.169Z,99296.56
2023-03-27T17:40:51.579Z,99296.78
2023-03-27T17:43:18.495Z,99306.47
2023-03-27T17:45:45.480Z,99300.47
2023-03-27T17:48:12.514Z,99309.63
2023-03-27T17:50:39.396Z,99315.16
2023-03-27T17:53:06.987Z,99308.78
2023-03-27T17:55:37.083Z,99321.38
2023-03-27T17:58:09.290Z,99317.97
2023-03-27T18:00:38.175Z,99319.16
2023-03-27T18:03:05.022Z,99328.97
2023-03-27T18:05:36.648Z,99339.56
2023-03-27T18:08:04.265Z,99343.13
2023-03-27T18:10:31.556Z,99345.84
2023-03-27T18:12:59.318Z,99352.16
2023-03-27T18:15:25.982Z,99343.44
2023-03-27T18:17:52.999Z,99352.25
2023-03-27T18:20:19.849Z,99346.28
2023-03-27T18:22:47.227Z,99345.31
2023-03-27T18:25:13.878Z,99341.09
2023-03-27T18:27:40.816Z,99341.84
2023-03-27T18:30:13.416Z,99352.41
2023-03-27T18:32:42.736Z,99354.22
2023-03-27T18:35:19.263Z,99361.28
2023-03-27T18:37:46.909Z,99368.47
2023-03-27T18:40:15.815Z,99372.00
2023-03-27T18:42:46.130Z,99372.00
2023-03-27T18:45:14.510Z,99369.31
2023-03-27T18:47:43.135Z,99383.25
2023-03-27T18:50:14.357Z,99372.00
2023-03-27T18:52:41.729Z,99384.16
2023-03-27T18:55:09.783Z,99384.56
2023-03-27T18:57:36.730Z,99376.88
2023-03-27T19:00:07.565Z,99373.34
2023-03-27T19:02:36.252Z,99369.94
2023-03-27T19:05:04.913Z,99367.84
2023-03-27T19:07:31.729Z,99382.81
2023-03-27T19:09:58.954Z,99382.00
2023-03-27T19:12:25.761Z,99374.44
2023-03-27T19:14:52.440Z,99380.56
2023-03-27T19:17:20.120Z,99378.09
2023-03-27T19:19:47.019Z,99380.81
2023-03-27T19:22:13.720Z,99377.44
2023-03-27T19:24:41.294Z,99372.06
2023-03-27T19:27:08.137Z,99379.91
2023-03-27T19:29:51.056Z,99372.97
2023-03-27T19:32:17.673Z,99380.69
2023-03-27T19:34:44.690Z,99374.75
2023-03-27T19:37:11.361Z,99386.78
2023-03-27T19:39:38.130Z,99386.78
2023-03-27T19:42:05.049Z,99387.50
2023-03-27T19:44:31.906Z,99389.94
2023-03-27T19:46:58.856Z,99395.22
2023-03-27T19:49:26.545Z,99377.78
2023-03-27T19:51:53.179Z,99388.28
2023-03-27T19:54:19.807Z,99383.97
2023-03-27T19:56:46.475Z,99384.34
2023-03-27T19:59:29.885Z,99387.06
2023-03-27T20:01:57.499Z,99380.94
2023-03-27T20:04:24.158Z,99387.31
2023-03-27T20:06:50.812Z,99389.97
2023-03-27T20:09:17.518Z,99393.69
2023-03-27T20:11:44.364Z,99397.34
2023-03-27T20:14:11.422Z,99399.97
2023-03-27T20:16:38.821Z,99399.16
2023-03-27T20:19:06.942Z,99402.91
2023-03-27T20:21:39.614Z,99407.34
2023-03-27T20:24:09.935Z,99399.53
2023-03-27T20:26:41.656Z,99407.47
2023-03-27T20:29:13.706Z,99408.38
2023-03-27T20:31:41.211Z,99416.34
2023-03-27T20:34:09.328Z,99412.91
2023-03-27T20:36:39.145Z,99412.13
2023-03-27T20:39:07.987Z,99404.22
2023-03-27T20:41:39.081Z,99406.13
2023-03-27T20:44:14.991Z,99408.84
2023-03-27T20:46:51.492Z,99404.47
2023-03-27T20:49:40.181Z,99415.91
2023-03-27T20:52:09.772Z,99416.91
2023-03-27T20:54:36.545Z,99415.09
2023-03-27T20:57:03.294Z,99414.28
2023-03-27T20:59:31.042Z,99421.25
2023-03-27T21:01:59.507Z,99420.41
2023-03-27T21:04:28.169Z,99423.09
2023-03-27T21:06:55.656Z,99423.16
2023-03-27T21:09:23.542Z,99427.38
2023-03-27T21:11:50.712Z,99432.56
2023-03-27T21:14:17.476Z,99434.31
2023-03-27T21:16:47.343Z,99433.47
2023-03-27T21:19:14.061Z,99431.78
2023-03-27T21:21:40.819Z,99424.72
2023-03-27T21:24:07.666Z,99436.03
2023-03-27T21:26:35.055Z,99428.25
2023-03-27T21:29:01.745Z,99435.97
2023-03-27T21:31:28.464Z,99443.66
2023-03-27T21:33:55.385Z,99440.16
2023-03-27T21:36:22.393Z,99437.38
2023-03-27T21:38:49.359Z,99447.66
2023-03-27T21:41:17.247Z,99439.81
2023-03-27T21:43:44.121Z,99448.50
2023-03-27T21:46:11.247Z,99445.94
2023-03-27T21:48:40.738Z,99443.22
2023-03-27T21:51:08.688Z,99450.13
2023-03-27T21:53:36.201Z,99447.59
2023-03-27T21:56:04.186Z,99452.69
2023-03-27T21:58:31.032Z,99451.75
2023-03-27T22:00:58.346Z,99452.66
2023-03-27T22:03:26.461Z,99453.41
2023-03-27T22:06:01.445Z,99451.63
2023-03-27T22:08:38.268Z,99455.81
2023-03-27T22:11:05.525Z,99450.66
2023-03-27T22:13:33.992Z,99456.84
2023-03-27T22:16:01.411Z,99465.47
2023-03-27T22:18:28.276Z,99463.81
2023-03-27T22:20:54.937Z,99462.81
2023-03-27T22:23:21.774Z,99461.97
2023-03-27T22:25:54.889Z,99463.63
2023-03-27T22:28:21.635Z,99470.47
2023-03-27T22:30:48.430Z,99479.19
2023-03-27T22:33:15.085Z,99479.16
2023-03-27T22:35:48.215Z,99484.31
2023-03-27T22:38:16.264Z,99477.31
2023-03-27T22:40:43.632Z,99477.25
2023-03-27T22:43:10.395Z,99474.69
2023-03-27T22:45:50.920Z,99486.13
2023-03-27T22:48:17.771Z,99487.84
2023-03-27T22:50:45.793Z,99482.63
2023-03-27T22:53:12.481Z,99490.53
2023-03-27T22:55:39.319Z,99494.88
2023-03-27T22:58:06.230Z,99489.53
2023-03-27T23:00:33.233Z,99493.78
2023-03-27T23:03:00.005Z,99498.16
2023-03-27T23:05:27.447Z,99495.59
2023-03-27T23:07:54.121Z,99491.41
2023-03-27T23:10:21.079Z,99503.72
2023-03-27T23:12:47.697Z,99508.88
2023-03-27T23:15:14.547Z,99512.47
2023-03-27T23:17:41.244Z,99510.63
2023-03-27T23:20:08.247Z,99510.59
2023-03-27T23:22:35.088Z,99519.28
2023-03-27T23:25:01.733Z,99520.03
2023-03-27T23:27:28.515Z,99527.16
2023-03-27T23:29:58.297Z,99521.22
2023-03-27T23:32:25.031Z,99520.41
2023-03-27T23:34:54.789Z,99531.75
2023-03-27T23:37:22.516Z,99532.50
2023-03-27T23:39:49.182Z,99535.06
2023-03-27T23:42:16.035Z,99533.38
2023-03-27T23:44:42.791Z,99535.16
2023-03-27T23:47:10.188Z,99540.34
2023-03-27T23:49:37.169Z,99537.78
2023-03-27T23:52:03.781Z,99536.97
2023-03-27T23:54:30.862Z,99543.13
2023-03-27T23:56:57.742Z,99538.91
2023-03-27T23:59:24.523Z,99533.69
